createdAt,value
2022-09-23T00:04:10.612Z,73
2022-09-23T00:09:12.383Z,72
2022-09-23T00:14:13.851Z,72
2022-09-23T00:19:15.170Z,72
2022-09-23T00:24:17.081Z,72
2022-09-23T00:29:18.620Z,72
2022-09-23T00:34:19.710Z,73
2022-09-23T00:39:21.379Z,73
2022-09-23T00:44:22.668Z,73
2022-09-23T00:49:24.750Z,73
2022-09-23T00:54:26.027Z,73
2022-09-23T00:59:27.965Z,73
2022-09-23T01:04:29.726Z,73
2022-09-23T01:09:31.878Z,74
2022-09-23T01:14:33.581Z,73
2022-09-23T01:19:35.173Z,73
2022-09-23T01:24:36.760Z,73
2022-09-23T01:29:38.852Z,74
2022-09-23T01:34:40.073Z,74
2022-09-23T01:39:41.549Z,74
2022-09-23T01:44:42.968Z,74
2022-09-23T01:49:44.938Z,74
2022-09-23T01:54:47.006Z,74
2022-09-23T01:59:48.510Z,74
2022-09-23T02:04:50.065Z,74
2022-09-23T02:09:51.684Z,74
2022-09-23T02:14:53.529Z,73
2022-09-23T02:19:54.698Z,74
2022-09-23T02:24:56.309Z,74
2022-09-23T02:29:58.358Z,74
2022-09-23T02:35:00.441Z,74
2022-09-23T02:40:02.550Z,74
2022-09-23T02:45:04.722Z,74
2022-09-23T02:50:06.122Z,74
2022-09-23T02:55:07.889Z,74
2022-09-23T03:00:09.997Z,74
2022-09-23T03:05:11.254Z,73
2022-09-23T03:10:13.389Z,74
2022-09-23T03:15:14.724Z,74
2022-09-23T03:20:16.840Z,74
2022-09-23T03:25:18.025Z,74
2022-09-23T03:30:19.338Z,74
2022-09-23T03:35:21.394Z,75
2022-09-23T03:40:22.675Z,75
2022-09-23T03:45:23.928Z,76
2022-09-23T03:50:25.260Z,75
2022-09-23T03:55:27.144Z,76
2022-09-23T04:00:29.181Z,76
2022-09-23T04:05:30.506Z,77
2022-09-23T04:10:31.838Z,77
2022-09-23T04:15:33.875Z,77
2022-09-23T04:20:35.304Z,78
2022-09-23T04:25:37.197Z,77
2022-09-23T04:30:38.777Z,77
2022-09-23T04:35:40.589Z,77
2022-09-23T04:40:42.170Z,77
2022-09-23T04:45:43.720Z,77
2022-09-23T04:50:45.063Z,78
2022-09-23T04:55:46.853Z,79
2022-09-23T05:00:48.742Z,79
2022-09-23T05:05:50.156Z,79
2022-09-23T05:10:52.023Z,79
2022-09-23T05:15:54.269Z,79
2022-09-23T05:20:55.970Z,80
2022-09-23T05:25:57.466Z,81
2022-09-23T05:30:59.514Z,81
2022-09-23T05:36:01.291Z,82
2022-09-23T05:41:02.702Z,83
2022-09-23T05:46:07.906Z,83
2022-09-23T05:51:05.327Z,83
2022-09-23T05:56:07.202Z,83
2022-09-23T06:01:09.272Z,83
2022-09-23T06:06:11.335Z,82
2022-09-23T06:11:13.421Z,80
2022-09-23T06:16:15.367Z,79
2022-09-23T06:21:16.574Z,78
2022-09-23T06:26:18.201Z,77
2022-09-23T06:31:20.037Z,76
2022-09-23T06:36:37.435Z,75
2022-09-23T06:41:23.487Z,75
2022-09-23T06:46:25.659Z,74
2022-09-23T06:51:27.062Z,73
2022-09-23T06:56:28.348Z,72
2022-09-23T07:01:30.587Z,70
2022-09-23T07:06:32.504Z,69
2022-09-23T07:11:33.725Z,67
2022-09-23T07:16:35.354Z,65
2022-09-23T07:21:37.350Z,64
2022-09-23T07:26:42.312Z,61
2022-09-23T07:31:40.727Z,60
2022-09-23T07:36:42.086Z,59
2022-09-23T07:41:44.022Z,56
2022-09-23T07:46:46.199Z,54
2022-09-23T07:51:48.096Z,52
2022-09-23T07:56:49.510Z,51
2022-09-23T08:01:51.160Z,51
2022-09-23T08:06:52.988Z,50
2022-09-23T08:11:54.422Z,49
2022-09-23T08:16:55.751Z,47
2022-09-23T08:21:57.199Z,47
2022-09-23T08:27:04.856Z,47
2022-09-23T08:32:06.266Z,46
2022-09-23T08:37:08.107Z,47
2022-09-23T08:42:09.795Z,47
2022-09-23T08:47:11.219Z,47
2022-09-23T08:52:13.287Z,48
2022-09-23T08:57:14.644Z,49
2022-09-23T09:02:16.679Z,49
2022-09-23T09:07:35.547Z,49
2022-09-23T09:12:19.294Z,49
2022-09-23T09:22:23.028Z,47
2022-09-23T09:27:24.689Z,46
2022-09-23T09:32:26.222Z,45
2022-09-23T09:42:29.856Z,38
2022-09-23T09:47:31.606Z,36
2022-09-23T10:02:36.108Z,31
2022-09-23T10:07:38.113Z,31
2022-09-23T10:22:42.034Z,29
2022-09-23T10:32:45.631Z,29
2022-09-23T10:37:47.378Z,30
2022-09-23T10:42:48.793Z,29
2022-09-23T10:47:50.315Z,28
2022-09-23T10:52:51.619Z,29
2022-09-23T10:57:53.152Z,29
2022-09-23T11:02:54.912Z,29
2022-09-23T11:07:56.690Z,30
2022-09-23T11:12:58.363Z,30
2022-09-23T11:18:00.305Z,30
2022-09-23T11:23:01.470Z,32
2022-09-23T11:28:03.513Z,31
2022-09-23T11:33:04.872Z,32
2022-09-23T11:38:06.903Z,32
2022-09-23T11:43:08.265Z,32
2022-09-23T11:48:10.026Z,34
2022-09-23T11:53:11.215Z,33
2022-09-23T11:58:21.632Z,34
2022-09-23T12:03:13.764Z,34
2022-09-23T12:08:14.794Z,35
2022-09-23T12:13:16.236Z,35
2022-09-23T12:18:22.296Z,35
2022-09-23T12:23:19.598Z,36
2022-09-23T12:28:21.519Z,36
2022-09-23T12:33:23.443Z,36
2022-09-23T12:38:24.560Z,37
2022-09-23T12:43:26.719Z,37
2022-09-23T12:48:28.506Z,37
2022-09-23T12:53:30.080Z,37
2022-09-23T12:58:31.866Z,38
2022-09-23T13:03:33.115Z,38
2022-09-23T13:08:34.550Z,38
2022-09-23T13:13:36.556Z,37
2022-09-23T13:18:38.293Z,38
2022-09-23T13:23:39.755Z,38
2022-09-23T13:28:41.562Z,38
2022-09-23T13:33:42.915Z,38
2022-09-23T13:38:44.324Z,38
2022-09-23T13:43:45.666Z,39
2022-09-23T13:48:46.918Z,39
2022-09-23T13:53:48.095Z,39
2022-09-23T13:58:50.260Z,39
2022-09-23T14:03:51.455Z,40
2022-09-23T14:08:53.420Z,40
2022-09-23T14:13:55.329Z,40
2022-09-23T14:18:56.565Z,40
2022-09-23T14:23:57.718Z,41
2022-09-23T14:28:59.919Z,41
2022-09-23T14:34:01.211Z,40
2022-09-23T14:39:02.880Z,41
2022-09-23T14:44:04.193Z,41
2022-09-23T14:49:05.541Z,41
2022-09-23T14:54:07.383Z,41
2022-09-23T14:59:09.522Z,41
2022-09-23T15:04:11.549Z,42
2022-09-23T15:09:13.235Z,42
2022-09-23T15:14:36.481Z,42
2022-09-23T15:19:15.955Z,43
2022-09-23T15:24:17.188Z,43
2022-09-23T15:29:18.522Z,43
2022-09-23T15:34:19.779Z,43
2022-09-23T15:39:21.264Z,44
2022-09-23T15:44:23.120Z,44
2022-09-23T15:49:24.526Z,45
2022-09-23T15:54:26.205Z,45
2022-09-23T15:59:28.095Z,45
2022-09-23T16:04:29.589Z,46
2022-09-23T16:09:30.885Z,46
2022-09-23T16:14:32.078Z,47
2022-09-23T16:19:33.839Z,47
2022-09-23T16:24:35.985Z,47
2022-09-23T16:29:37.662Z,48
2022-09-23T16:34:39.163Z,47
2022-09-23T16:39:41.052Z,48
2022-09-23T16:44:42.524Z,48
2022-09-23T16:49:44.297Z,48
2022-09-23T16:54:46.225Z,48
2022-09-23T16:59:48.088Z,49
2022-09-23T17:04:50.122Z,49
2022-09-23T17:09:51.927Z,50
2022-09-23T17:14:54.045Z,49
2022-09-23T17:19:55.394Z,51
2022-09-23T17:24:56.792Z,52
2022-09-23T17:29:58.984Z,52
2022-09-23T17:35:00.893Z,53
2022-09-23T17:40:02.925Z,54
2022-09-23T17:45:04.507Z,54
2022-09-23T17:50:06.291Z,54
2022-09-23T17:55:08.369Z,55
2022-09-23T18:00:09.900Z,56
2022-09-23T18:05:11.567Z,56
2022-09-23T18:10:13.570Z,56
2022-09-23T18:15:18.136Z,57
2022-09-23T18:20:16.491Z,57
2022-09-23T18:25:37.931Z,58
2022-09-23T18:30:19.716Z,58
2022-09-23T18:35:21.511Z,58
2022-09-23T18:40:23.201Z,59
2022-09-23T18:45:24.712Z,59
2022-09-23T18:50:25.929Z,60
2022-09-23T18:55:27.235Z,60
2022-09-23T19:00:29.117Z,60
2022-09-23T19:05:30.887Z,61
2022-09-23T19:10:37.588Z,61
2022-09-23T19:15:34.457Z,62
2022-09-23T19:20:36.511Z,62
2022-09-23T19:25:38.614Z,63
2022-09-23T19:30:40.832Z,63
2022-09-23T19:35:42.726Z,64
2022-09-23T19:40:47.752Z,65
2022-09-23T19:45:46.222Z,64
2022-09-23T19:50:48.134Z,66
2022-09-23T19:55:49.821Z,66
2022-09-23T20:00:51.277Z,66
2022-09-23T20:05:52.945Z,67
2022-09-23T20:10:54.331Z,68
2022-09-23T20:15:56.301Z,68
2022-09-23T20:20:57.890Z,69
2022-09-23T20:25:59.777Z,69
2022-09-23T20:31:01.139Z,69
2022-09-23T20:36:02.802Z,69
2022-09-23T20:41:04.417Z,70
2022-09-23T20:46:05.806Z,69
2022-09-23T20:51:07.836Z,70
2022-09-23T20:56:09.721Z,71
2022-09-23T21:01:11.346Z,70
2022-09-23T21:06:12.741Z,71
2022-09-23T21:11:13.915Z,71
2022-09-23T21:16:15.571Z,71
2022-09-23T21:21:17.261Z,71
2022-09-23T21:26:18.833Z,72
2022-09-23T21:31:20.379Z,72
2022-09-23T21:36:22.218Z,72
2022-09-23T21:41:24.291Z,72
2022-09-23T21:46:26.099Z,73
2022-09-23T21:51:27.640Z,72
2022-09-23T21:56:29.234Z,72
2022-09-23T22:16:35.855Z,72
2022-09-23T22:21:37.794Z,72
2022-09-23T22:26:39.651Z,72
2022-09-23T22:31:41.649Z,73
2022-09-23T22:36:43.246Z,73
2022-09-23T22:41:44.709Z,73
2022-09-23T22:46:46.419Z,74
2022-09-23T22:51:48.256Z,74
2022-09-23T22:56:50.114Z,73
2022-09-23T23:01:52.123Z,73
2022-09-23T23:06:53.688Z,74
2022-09-23T23:11:55.383Z,74
2022-09-23T23:16:56.695Z,73
2022-09-23T23:21:58.040Z,74
2022-09-23T23:26:59.659Z,74
2022-09-23T23:32:01.001Z,73
2022-09-23T23:37:02.306Z,74
2022-09-23T23:42:04.174Z,74
2022-09-23T23:47:05.816Z,74
2022-09-23T23:52:07.622Z,74
2022-09-23T23:57:08.981Z,74
